sensor_id;sensor_type;location;lat;lon;timestamp;P1;durP1;ratioP1;P2;durP2;ratioP2
21601;SDS011;10963;50.934;4.668;2022-12-10T00:02:07;50.83;;;19.87;;
21601;SDS011;10963;50.934;4.668;2022-12-10T00:04:32;52.20;;;21.43;;
21601;SDS011;10963;50.934;4.668;2022-12-10T00:07:01;52.53;;;20.20;;
21601;SDS011;10963;50.934;4.668;2022-12-10T00:09:26;51.77;;;21.93;;
21601;SDS011;10963;50.934;4.668;2022-12-10T00:11:55;52.37;;;21.07;;
21601;SDS011;10963;50.934;4.668;2022-12-10T00:14:25;48.00;;;20.83;;
21601;SDS011;10963;50.934;4.668;2022-12-10T00:16:51;50.73;;;20.33;;
21601;SDS011;10963;50.934;4.668;2022-12-10T00:19:19;53.80;;;20.53;;
21601;SDS011;10963;50.934;4.668;2022-12-10T00:21:47;52.50;;;21.00;;
21601;SDS011;10963;50.934;4.668;2022-12-10T00:24:13;51.80;;;21.33;;
21601;SDS011;10963;50.934;4.668;2022-12-10T00:26:39;49.97;;;20.23;;
21601;SDS011;10963;50.934;4.668;2022-12-10T00:29:11;47.10;;;18.70;;
21601;SDS011;10963;50.934;4.668;2022-12-10T00:31:39;52.27;;;20.93;;
21601;SDS011;10963;50.934;4.668;2022-12-10T00:34:06;49.97;;;20.47;;
21601;SDS011;10963;50.934;4.668;2022-12-10T00:36:35;46.53;;;20.77;;
21601;SDS011;10963;50.934;4.668;2022-12-10T00:39:15;48.07;;;19.17;;
21601;SDS011;10963;50.934;4.668;2022-12-10T00:41:43;52.90;;;20.83;;
21601;SDS011;10963;50.934;4.668;2022-12-10T00:44:08;54.67;;;22.40;;
21601;SDS011;10963;50.934;4.668;2022-12-10T00:46:35;58.10;;;21.20;;
21601;SDS011;10963;50.934;4.668;2022-12-10T00:49:03;48.87;;;20.53;;
21601;SDS011;10963;50.934;4.668;2022-12-10T00:51:31;52.40;;;21.43;;
21601;SDS011;10963;50.934;4.668;2022-12-10T00:53:57;47.20;;;21.23;;
21601;SDS011;10963;50.934;4.668;2022-12-10T00:56:28;50.37;;;20.97;;
21601;SDS011;10963;50.934;4.668;2022-12-10T00:58:56;56.17;;;21.87;;
21601;SDS011;10963;50.934;4.668;2022-12-10T01:01:32;55.50;;;21.73;;
21601;SDS011;10963;50.934;4.668;2022-12-10T01:04:02;52.70;;;21.07;;
21601;SDS011;10963;50.934;4.668;2022-12-10T01:06:30;52.53;;;21.00;;
21601;SDS011;10963;50.934;4.668;2022-12-10T01:09:03;50.57;;;20.53;;
21601;SDS011;10963;50.934;4.668;2022-12-10T01:11:31;54.77;;;21.97;;
21601;SDS011;10963;50.934;4.668;2022-12-10T01:13:59;52.73;;;21.53;;
21601;SDS011;10963;50.934;4.668;2022-12-10T01:16:26;50.90;;;21.50;;
21601;SDS011;10963;50.934;4.668;2022-12-10T01:18:55;50.50;;;19.90;;
21601;SDS011;10963;50.934;4.668;2022-12-10T01:21:22;54.20;;;23.07;;
21601;SDS011;10963;50.934;4.668;2022-12-10T01:23:49;52.03;;;20.20;;
21601;SDS011;10963;50.934;4.668;2022-12-10T01:26:17;51.40;;;21.13;;
21601;SDS011;10963;50.934;4.668;2022-12-10T01:28:48;56.50;;;21.13;;
21601;SDS011;10963;50.934;4.668;2022-12-10T01:31:16;47.77;;;20.60;;
21601;SDS011;10963;50.934;4.668;2022-12-10T01:33:45;53.00;;;20.17;;
21601;SDS011;10963;50.934;4.668;2022-12-10T01:36:15;50.33;;;20.20;;
21601;SDS011;10963;50.934;4.668;2022-12-10T01:38:43;52.37;;;21.10;;
21601;SDS011;10963;50.934;4.668;2022-12-10T01:41:13;52.70;;;21.23;;
21601;SDS011;10963;50.934;4.668;2022-12-10T01:44:00;53.50;;;21.20;;
21601;SDS011;10963;50.934;4.668;2022-12-10T01:49:02;54.50;;;20.57;;
21601;SDS011;10963;50.934;4.668;2022-12-10T01:51:33;53.83;;;20.57;;
21601;SDS011;10963;50.934;4.668;2022-12-10T01:54:04;54.40;;;21.47;;
21601;SDS011;10963;50.934;4.668;2022-12-10T01:56:36;50.57;;;18.73;;
21601;SDS011;10963;50.934;4.668;2022-12-10T01:59:05;48.00;;;20.23;;
21601;SDS011;10963;50.934;4.668;2022-12-10T02:04:47;47.93;;;18.63;;
21601;SDS011;10963;50.934;4.668;2022-12-10T02:07:40;44.53;;;18.23;;
21601;SDS011;10963;50.934;4.668;2022-12-10T02:10:40;39.87;;;16.67;;
21601;SDS011;10963;50.934;4.668;2022-12-10T02:13:10;44.03;;;18.33;;
21601;SDS011;10963;50.934;4.668;2022-12-10T02:15:44;44.87;;;18.07;;
21601;SDS011;10963;50.934;4.668;2022-12-10T02:18:43;43.93;;;18.07;;
21601;SDS011;10963;50.934;4.668;2022-12-10T02:21:38;41.83;;;17.20;;
21601;SDS011;10963;50.934;4.668;2022-12-10T02:24:08;48.50;;;19.40;;
21601;SDS011;10963;50.934;4.668;2022-12-10T02:26:49;49.73;;;18.40;;
21601;SDS011;10963;50.934;4.668;2022-12-10T02:29:21;43.60;;;16.53;;
21601;SDS011;10963;50.934;4.668;2022-12-10T02:34:42;37.80;;;15.97;;
21601;SDS011;10963;50.934;4.668;2022-12-10T02:37:21;45.43;;;16.53;;
21601;SDS011;10963;50.934;4.668;2022-12-10T02:39:53;39.10;;;16.80;;
21601;SDS011;10963;50.934;4.668;2022-12-10T02:42:24;40.33;;;16.40;;
21601;SDS011;10963;50.934;4.668;2022-12-10T02:44:51;49.80;;;18.00;;
21601;SDS011;10963;50.934;4.668;2022-12-10T02:47:19;46.20;;;18.90;;
21601;SDS011;10963;50.934;4.668;2022-12-10T02:49:47;49.47;;;17.97;;
21601;SDS011;10963;50.934;4.668;2022-12-10T02:52:16;40.30;;;15.87;;
21601;SDS011;10963;50.934;4.668;2022-12-10T02:54:47;52.37;;;19.63;;
21601;SDS011;10963;50.934;4.668;2022-12-10T02:57:18;48.07;;;17.73;;
21601;SDS011;10963;50.934;4.668;2022-12-10T03:05:22;48.53;;;18.43;;
21601;SDS011;10963;50.934;4.668;2022-12-10T03:10:40;46.53;;;19.07;;
21601;SDS011;10963;50.934;4.668;2022-12-10T03:13:38;47.43;;;17.20;;
21601;SDS011;10963;50.934;4.668;2022-12-10T03:16:09;55.47;;;18.57;;
21601;SDS011;10963;50.934;4.668;2022-12-10T03:18:36;50.30;;;19.13;;
21601;SDS011;10963;50.934;4.668;2022-12-10T03:21:04;47.50;;;17.87;;
21601;SDS011;10963;50.934;4.668;2022-12-10T03:23:35;56.03;;;19.07;;
21601;SDS011;10963;50.934;4.668;2022-12-10T03:26:05;49.47;;;18.73;;
21601;SDS011;10963;50.934;4.668;2022-12-10T03:28:34;50.23;;;18.27;;
21601;SDS011;10963;50.934;4.668;2022-12-10T03:31:07;54.50;;;19.20;;
21601;SDS011;10963;50.934;4.668;2022-12-10T03:33:37;51.50;;;18.87;;
21601;SDS011;10963;50.934;4.668;2022-12-10T03:36:04;52.47;;;17.37;;
21601;SDS011;10963;50.934;4.668;2022-12-10T03:38:34;44.50;;;17.43;;
21601;SDS011;10963;50.934;4.668;2022-12-10T03:41:01;49.67;;;19.20;;
21601;SDS011;10963;50.934;4.668;2022-12-10T03:43:27;48.53;;;19.37;;
21601;SDS011;10963;50.934;4.668;2022-12-10T03:45:52;46.40;;;18.20;;
21601;SDS011;10963;50.934;4.668;2022-12-10T03:48:18;50.13;;;18.47;;
21601;SDS011;10963;50.934;4.668;2022-12-10T03:50:45;49.60;;;18.20;;
21601;SDS011;10963;50.934;4.668;2022-12-10T03:53:10;49.97;;;19.47;;
21601;SDS011;10963;50.934;4.668;2022-12-10T03:55:36;53.60;;;19.97;;
21601;SDS011;10963;50.934;4.668;2022-12-10T03:58:02;55.07;;;19.40;;
21601;SDS011;10963;50.934;4.668;2022-12-10T04:00:28;51.83;;;19.60;;
21601;SDS011;10963;50.934;4.668;2022-12-10T04:02:54;54.47;;;19.63;;
21601;SDS011;10963;50.934;4.668;2022-12-10T04:05:20;48.13;;;18.20;;
21601;SDS011;10963;50.934;4.668;2022-12-10T04:07:45;51.87;;;18.53;;
21601;SDS011;10963;50.934;4.668;2022-12-10T04:10:11;54.77;;;19.47;;
21601;SDS011;10963;50.934;4.668;2022-12-10T04:12:37;56.07;;;19.10;;
21601;SDS011;10963;50.934;4.668;2022-12-10T04:15:03;55.67;;;19.17;;
21601;SDS011;10963;50.934;4.668;2022-12-10T04:17:47;55.50;;;17.47;;
21601;SDS011;10963;50.934;4.668;2022-12-10T04:20:13;51.67;;;18.53;;
21601;SDS011;10963;50.934;4.668;2022-12-10T04:22:57;46.33;;;18.80;;
21601;SDS011;10963;50.934;4.668;2022-12-10T04:25:41;50.47;;;19.40;;
21601;SDS011;10963;50.934;4.668;2022-12-10T04:28:26;54.60;;;19.07;;
21601;SDS011;10963;50.934;4.668;2022-12-10T04:30:51;60.03;;;20.43;;
21601;SDS011;10963;50.934;4.668;2022-12-10T04:33:18;66.20;;;23.67;;
21601;SDS011;10963;50.934;4.668;2022-12-10T04:35:43;63.27;;;21.87;;
21601;SDS011;10963;50.934;4.668;2022-12-10T04:38:09;55.77;;;20.73;;
21601;SDS011;10963;50.934;4.668;2022-12-10T04:40:35;75.63;;;21.27;;
21601;SDS011;10963;50.934;4.668;2022-12-10T04:43:02;57.90;;;20.10;;
21601;SDS011;10963;50.934;4.668;2022-12-10T04:45:28;70.17;;;22.60;;
21601;SDS011;10963;50.934;4.668;2022-12-10T04:47:53;58.60;;;22.27;;
21601;SDS011;10963;50.934;4.668;2022-12-10T04:50:19;59.73;;;21.10;;
21601;SDS011;10963;50.934;4.668;2022-12-10T04:52:45;64.03;;;22.23;;
21601;SDS011;10963;50.934;4.668;2022-12-10T04:55:11;63.00;;;23.13;;
21601;SDS011;10963;50.934;4.668;2022-12-10T04:57:36;62.13;;;22.50;;
21601;SDS011;10963;50.934;4.668;2022-12-10T05:00:03;63.60;;;22.83;;
21601;SDS011;10963;50.934;4.668;2022-12-10T05:02:29;64.63;;;23.00;;
21601;SDS011;10963;50.934;4.668;2022-12-10T05:04:55;65.83;;;21.70;;
21601;SDS011;10963;50.934;4.668;2022-12-10T05:07:20;54.53;;;20.30;;
21601;SDS011;10963;50.934;4.668;2022-12-10T05:09:46;58.67;;;20.83;;
21601;SDS011;10963;50.934;4.668;2022-12-10T05:12:14;64.77;;;21.50;;
21601;SDS011;10963;50.934;4.668;2022-12-10T05:14:40;58.27;;;21.87;;
21601;SDS011;10963;50.934;4.668;2022-12-10T05:17:06;63.27;;;21.83;;
21601;SDS011;10963;50.934;4.668;2022-12-10T05:19:32;67.60;;;23.07;;
21601;SDS011;10963;50.934;4.668;2022-12-10T05:21:58;63.87;;;23.03;;
21601;SDS011;10963;50.934;4.668;2022-12-10T05:24:42;61.70;;;21.27;;
21601;SDS011;10963;50.934;4.668;2022-12-10T05:27:08;63.27;;;22.23;;
21601;SDS011;10963;50.934;4.668;2022-12-10T05:29:36;66.37;;;22.70;;
21601;SDS011;10963;50.934;4.668;2022-12-10T05:32:02;67.17;;;23.80;;
21601;SDS011;10963;50.934;4.668;2022-12-10T05:34:29;65.57;;;21.30;;
21601;SDS011;10963;50.934;4.668;2022-12-10T05:36:54;66.23;;;23.80;;
21601;SDS011;10963;50.934;4.668;2022-12-10T05:39:20;65.10;;;23.63;;
21601;SDS011;10963;50.934;4.668;2022-12-10T05:41:46;65.10;;;20.93;;
21601;SDS011;10963;50.934;4.668;2022-12-10T05:44:12;67.27;;;23.33;;
21601;SDS011;10963;50.934;4.668;2022-12-10T05:46:38;68.33;;;24.17;;
21601;SDS011;10963;50.934;4.668;2022-12-10T05:49:04;67.20;;;22.60;;
21601;SDS011;10963;50.934;4.668;2022-12-10T05:51:31;66.33;;;22.27;;
21601;SDS011;10963;50.934;4.668;2022-12-10T05:54:00;75.60;;;23.83;;
21601;SDS011;10963;50.934;4.668;2022-12-10T05:56:29;63.67;;;22.97;;
21601;SDS011;10963;50.934;4.668;2022-12-10T05:59:02;68.20;;;23.70;;
21601;SDS011;10963;50.934;4.668;2022-12-10T06:01:31;76.80;;;24.97;;
21601;SDS011;10963;50.934;4.668;2022-12-10T06:03:59;68.60;;;23.70;;
21601;SDS011;10963;50.934;4.668;2022-12-10T06:06:29;73.67;;;24.33;;
21601;SDS011;10963;50.934;4.668;2022-12-10T06:09:05;68.80;;;23.47;;
21601;SDS011;10963;50.934;4.668;2022-12-10T06:11:32;66.70;;;23.50;;
21601;SDS011;10963;50.934;4.668;2022-12-10T06:13:58;67.33;;;24.10;;
21601;SDS011;10963;50.934;4.668;2022-12-10T06:16:25;71.70;;;23.30;;
21601;SDS011;10963;50.934;4.668;2022-12-10T06:18:52;77.47;;;22.17;;
21601;SDS011;10963;50.934;4.668;2022-12-10T06:21:18;68.00;;;24.33;;
21601;SDS011;10963;50.934;4.668;2022-12-10T06:23:46;81.67;;;25.30;;
21601;SDS011;10963;50.934;4.668;2022-12-10T06:26:15;70.87;;;23.57;;
21601;SDS011;10963;50.934;4.668;2022-12-10T06:28:44;72.30;;;24.00;;
21601;SDS011;10963;50.934;4.668;2022-12-10T06:31:11;78.67;;;22.00;;
21601;SDS011;10963;50.934;4.668;2022-12-10T06:33:37;76.23;;;24.47;;
21601;SDS011;10963;50.934;4.668;2022-12-10T06:36:06;69.73;;;25.00;;
21601;SDS011;10963;50.934;4.668;2022-12-10T06:38:34;89.30;;;27.00;;
21601;SDS011;10963;50.934;4.668;2022-12-10T06:41:03;70.27;;;23.57;;
21601;SDS011;10963;50.934;4.668;2022-12-10T06:43:31;74.60;;;24.83;;
21601;SDS011;10963;50.934;4.668;2022-12-10T06:45:56;82.07;;;24.23;;
21601;SDS011;10963;50.934;4.668;2022-12-10T06:48:22;77.53;;;24.63;;
21601;SDS011;10963;50.934;4.668;2022-12-10T06:50:49;75.67;;;25.67;;
21601;SDS011;10963;50.934;4.668;2022-12-10T06:53:15;72.40;;;24.20;;
21601;SDS011;10963;50.934;4.668;2022-12-10T06:55:41;88.10;;;25.83;;
21601;SDS011;10963;50.934;4.668;2022-12-10T06:58:07;83.33;;;23.73;;
21601;SDS011;10963;50.934;4.668;2022-12-10T07:00:32;82.90;;;23.97;;
21601;SDS011;10963;50.934;4.668;2022-12-10T07:02:58;83.50;;;24.07;;
21601;SDS011;10963;50.934;4.668;2022-12-10T07:05:24;79.50;;;25.93;;
21601;SDS011;10963;50.934;4.668;2022-12-10T07:07:50;84.33;;;23.87;;
21601;SDS011;10963;50.934;4.668;2022-12-10T07:10:15;85.07;;;25.43;;
21601;SDS011;10963;50.934;4.668;2022-12-10T07:12:44;80.30;;;24.73;;
21601;SDS011;10963;50.934;4.668;2022-12-10T07:15:10;76.53;;;23.33;;
21601;SDS011;10963;50.934;4.668;2022-12-10T07:17:38;93.93;;;31.30;;
21601;SDS011;10963;50.934;4.668;2022-12-10T07:20:06;76.43;;;24.23;;
21601;SDS011;10963;50.934;4.668;2022-12-10T07:22:33;82.00;;;25.97;;
21601;SDS011;10963;50.934;4.668;2022-12-10T07:24:58;86.23;;;26.23;;
21601;SDS011;10963;50.934;4.668;2022-12-10T07:27:24;82.13;;;24.50;;
21601;SDS011;10963;50.934;4.668;2022-12-10T07:29:50;81.70;;;25.93;;
21601;SDS011;10963;50.934;4.668;2022-12-10T07:32:16;91.73;;;25.33;;
21601;SDS011;10963;50.934;4.668;2022-12-10T07:34:43;92.87;;;25.97;;
21601;SDS011;10963;50.934;4.668;2022-12-10T07:37:11;91.50;;;26.23;;
21601;SDS011;10963;50.934;4.668;2022-12-10T07:39:37;83.10;;;25.67;;
21601;SDS011;10963;50.934;4.668;2022-12-10T07:42:03;78.97;;;26.17;;
21601;SDS011;10963;50.934;4.668;2022-12-10T07:44:29;79.67;;;25.23;;
21601;SDS011;10963;50.934;4.668;2022-12-10T07:46:55;84.20;;;26.67;;
21601;SDS011;10963;50.934;4.668;2022-12-10T07:49:21;89.43;;;25.40;;
21601;SDS011;10963;50.934;4.668;2022-12-10T07:51:47;91.83;;;26.50;;
21601;SDS011;10963;50.934;4.668;2022-12-10T07:54:14;97.57;;;27.83;;
21601;SDS011;10963;50.934;4.668;2022-12-10T07:56:41;82.47;;;26.50;;
21601;SDS011;10963;50.934;4.668;2022-12-10T07:59:07;91.40;;;27.53;;
21601;SDS011;10963;50.934;4.668;2022-12-10T08:01:33;84.23;;;27.37;;
21601;SDS011;10963;50.934;4.668;2022-12-10T08:04:02;87.00;;;27.33;;
21601;SDS011;10963;50.934;4.668;2022-12-10T08:06:28;78.23;;;25.63;;
21601;SDS011;10963;50.934;4.668;2022-12-10T08:08:54;85.70;;;27.10;;
21601;SDS011;10963;50.934;4.668;2022-12-10T08:11:23;92.53;;;29.67;;
21601;SDS011;10963;50.934;4.668;2022-12-10T08:13:49;87.70;;;25.90;;
21601;SDS011;10963;50.934;4.668;2022-12-10T08:16:16;103.37;;;26.60;;
21601;SDS011;10963;50.934;4.668;2022-12-10T08:18:44;77.27;;;24.77;;
21601;SDS011;10963;50.934;4.668;2022-12-10T08:21:15;80.00;;;24.80;;
21601;SDS011;10963;50.934;4.668;2022-12-10T08:23:43;89.33;;;25.17;;
21601;SDS011;10963;50.934;4.668;2022-12-10T08:26:10;82.47;;;23.23;;
21601;SDS011;10963;50.934;4.668;2022-12-10T08:28:51;92.53;;;26.37;;
21601;SDS011;10963;50.934;4.668;2022-12-10T08:31:18;95.83;;;25.87;;
21601;SDS011;10963;50.934;4.668;2022-12-10T08:33:45;98.03;;;25.23;;
21601;SDS011;10963;50.934;4.668;2022-12-10T08:36:13;95.73;;;25.47;;
21601;SDS011;10963;50.934;4.668;2022-12-10T08:38:40;90.90;;;26.23;;
21601;SDS011;10963;50.934;4.668;2022-12-10T08:41:10;98.13;;;26.67;;
21601;SDS011;10963;50.934;4.668;2022-12-10T08:43:43;80.23;;;23.27;;
21601;SDS011;10963;50.934;4.668;2022-12-10T08:46:09;75.97;;;22.33;;
21601;SDS011;10963;50.934;4.668;2022-12-10T08:48:37;68.10;;;22.40;;
21601;SDS011;10963;50.934;4.668;2022-12-10T08:51:04;82.87;;;23.30;;
21601;SDS011;10963;50.934;4.668;2022-12-10T08:53:30;76.60;;;23.83;;
21601;SDS011;10963;50.934;4.668;2022-12-10T08:55:56;74.20;;;21.87;;
21601;SDS011;10963;50.934;4.668;2022-12-10T08:58:22;70.37;;;22.00;;
21601;SDS011;10963;50.934;4.668;2022-12-10T09:00:49;70.30;;;22.43;;
21601;SDS011;10963;50.934;4.668;2022-12-10T09:03:15;75.10;;;23.07;;
21601;SDS011;10963;50.934;4.668;2022-12-10T09:05:41;69.10;;;21.63;;
21601;SDS011;10963;50.934;4.668;2022-12-10T09:08:08;65.70;;;21.47;;
21601;SDS011;10963;50.934;4.668;2022-12-10T09:10:35;74.20;;;22.87;;
21601;SDS011;10963;50.934;4.668;2022-12-10T09:13:02;72.67;;;22.77;;
21601;SDS011;10963;50.934;4.668;2022-12-10T09:15:28;72.10;;;22.37;;
21601;SDS011;10963;50.934;4.668;2022-12-10T09:17:54;71.00;;;22.93;;
21601;SDS011;10963;50.934;4.668;2022-12-10T09:20:19;65.03;;;21.63;;
21601;SDS011;10963;50.934;4.668;2022-12-10T09:22:45;86.33;;;20.87;;
21601;SDS011;10963;50.934;4.668;2022-12-10T09:25:11;68.97;;;20.33;;
21601;SDS011;10963;50.934;4.668;2022-12-10T09:27:40;81.23;;;20.20;;
21601;SDS011;10963;50.934;4.668;2022-12-10T09:30:06;63.30;;;19.57;;
21601;SDS011;10963;50.934;4.668;2022-12-10T09:32:35;55.00;;;18.60;;
21601;SDS011;10963;50.934;4.668;2022-12-10T09:35:00;64.03;;;20.57;;
21601;SDS011;10963;50.934;4.668;2022-12-10T09:37:26;62.67;;;20.13;;
21601;SDS011;10963;50.934;4.668;2022-12-10T09:39:52;56.47;;;18.20;;
21601;SDS011;10963;50.934;4.668;2022-12-10T09:48:39;54.10;;;16.60;;
21601;SDS011;10963;50.934;4.668;2022-12-10T09:51:21;59.67;;;19.00;;
21601;SDS011;10963;50.934;4.668;2022-12-10T09:54:12;56.13;;;19.07;;
21601;SDS011;10963;50.934;4.668;2022-12-10T09:56:50;58.70;;;19.03;;
21601;SDS011;10963;50.934;4.668;2022-12-10T10:02:02;69.57;;;21.30;;
21601;SDS011;10963;50.934;4.668;2022-12-10T10:04:28;58.40;;;19.73;;
21601;SDS011;10963;50.934;4.668;2022-12-10T10:06:54;53.03;;;17.23;;
21601;SDS011;10963;50.934;4.668;2022-12-10T10:09:20;54.80;;;17.83;;
21601;SDS011;10963;50.934;4.668;2022-12-10T10:11:46;51.47;;;17.50;;
21601;SDS011;10963;50.934;4.668;2022-12-10T10:14:30;51.13;;;17.67;;
21601;SDS011;10963;50.934;4.668;2022-12-10T10:17:42;52.57;;;18.00;;
21601;SDS011;10963;50.934;4.668;2022-12-10T10:19:46;52.33;;;18.43;;
21601;SDS011;10963;50.934;4.668;2022-12-10T10:22:12;53.03;;;18.47;;
21601;SDS011;10963;50.934;4.668;2022-12-10T10:24:42;57.30;;;18.47;;
21601;SDS011;10963;50.934;4.668;2022-12-10T10:27:17;56.13;;;17.90;;
21601;SDS011;10963;50.934;4.668;2022-12-10T10:29:50;55.10;;;17.30;;
21601;SDS011;10963;50.934;4.668;2022-12-10T10:34:44;55.07;;;18.27;;
21601;SDS011;10963;50.934;4.668;2022-12-10T10:37:15;51.77;;;18.53;;
21601;SDS011;10963;50.934;4.668;2022-12-10T10:39:46;56.70;;;19.20;;
21601;SDS011;10963;50.934;4.668;2022-12-10T10:42:17;53.67;;;18.33;;
21601;SDS011;10963;50.934;4.668;2022-12-10T10:44:59;48.40;;;17.80;;
21601;SDS011;10963;50.934;4.668;2022-12-10T10:47:32;49.07;;;16.80;;
21601;SDS011;10963;50.934;4.668;2022-12-10T10:49:59;58.73;;;21.73;;
21601;SDS011;10963;50.934;4.668;2022-12-10T10:52:29;48.13;;;16.93;;
21601;SDS011;10963;50.934;4.668;2022-12-10T10:54:59;50.13;;;18.70;;
21601;SDS011;10963;50.934;4.668;2022-12-10T11:02:34;51.93;;;18.27;;
21601;SDS011;10963;50.934;4.668;2022-12-10T11:05:15;50.37;;;18.60;;
21601;SDS011;10963;50.934;4.668;2022-12-10T11:07:45;51.90;;;17.80;;
21601;SDS011;10963;50.934;4.668;2022-12-10T11:12:54;47.57;;;17.40;;
21601;SDS011;10963;50.934;4.668;2022-12-10T11:17:50;55.03;;;18.20;;
21601;SDS011;10963;50.934;4.668;2022-12-10T11:20:28;49.63;;;17.93;;
21601;SDS011;10963;50.934;4.668;2022-12-10T11:23:01;50.60;;;19.87;;
21601;SDS011;10963;50.934;4.668;2022-12-10T11:25:55;50.20;;;18.07;;
21601;SDS011;10963;50.934;4.668;2022-12-10T11:31:33;48.70;;;18.13;;
21601;SDS011;10963;50.934;4.668;2022-12-10T11:40:12;52.10;;;18.53;;
21601;SDS011;10963;50.934;4.668;2022-12-10T11:48:08;44.20;;;18.37;;
21601;SDS011;10963;50.934;4.668;2022-12-10T11:50:44;47.90;;;18.43;;
21601;SDS011;10963;50.934;4.668;2022-12-10T11:53:38;57.27;;;19.87;;
21601;SDS011;10963;50.934;4.668;2022-12-10T11:58:32;53.50;;;20.27;;
21601;SDS011;10963;50.934;4.668;2022-12-10T12:04:06;52.17;;;19.13;;
21601;SDS011;10963;50.934;4.668;2022-12-10T12:14:51;47.73;;;19.03;;
21601;SDS011;10963;50.934;4.668;2022-12-10T12:20:02;56.17;;;19.53;;
21601;SDS011;10963;50.934;4.668;2022-12-10T12:22:38;58.53;;;20.17;;
21601;SDS011;10963;50.934;4.668;2022-12-10T12:28:00;56.57;;;22.10;;
21601;SDS011;10963;50.934;4.668;2022-12-10T12:30:39;56.80;;;21.87;;
21601;SDS011;10963;50.934;4.668;2022-12-10T12:33:10;56.87;;;20.20;;
21601;SDS011;10963;50.934;4.668;2022-12-10T12:35:43;61.30;;;21.40;;
21601;SDS011;10963;50.934;4.668;2022-12-10T12:43:58;65.43;;;22.03;;
21601;SDS011;10963;50.934;4.668;2022-12-10T12:46:37;56.63;;;20.40;;
21601;SDS011;10963;50.934;4.668;2022-12-10T12:51:49;58.03;;;21.03;;
21601;SDS011;10963;50.934;4.668;2022-12-10T12:54:16;64.30;;;20.47;;
21601;SDS011;10963;50.934;4.668;2022-12-10T13:04:49;55.53;;;21.43;;
21601;SDS011;10963;50.934;4.668;2022-12-10T13:09:48;59.00;;;20.70;;
21601;SDS011;10963;50.934;4.668;2022-12-10T13:12:17;65.17;;;21.43;;
21601;SDS011;10963;50.934;4.668;2022-12-10T13:22:54;52.47;;;19.93;;
21601;SDS011;10963;50.934;4.668;2022-12-10T13:28:40;55.37;;;21.13;;
21601;SDS011;10963;50.934;4.668;2022-12-10T13:36:12;58.77;;;21.17;;
21601;SDS011;10963;50.934;4.668;2022-12-10T13:38:54;56.13;;;20.37;;
21601;SDS011;10963;50.934;4.668;2022-12-10T13:41:23;58.67;;;20.47;;
21601;SDS011;10963;50.934;4.668;2022-12-10T13:46:59;58.47;;;22.57;;
21601;SDS011;10963;50.934;4.668;2022-12-10T13:49:29;64.17;;;22.27;;
21601;SDS011;10963;50.934;4.668;2022-12-10T14:08:00;59.57;;;20.77;;
21601;SDS011;10963;50.934;4.668;2022-12-10T14:10:33;53.13;;;23.10;;
21601;SDS011;10963;50.934;4.668;2022-12-10T14:13:01;55.60;;;21.40;;
21601;SDS011;10963;50.934;4.668;2022-12-10T14:15:28;56.30;;;19.73;;
21601;SDS011;10963;50.934;4.668;2022-12-10T14:18:13;53.97;;;19.73;;
21601;SDS011;10963;50.934;4.668;2022-12-10T14:20:44;46.93;;;19.10;;
21601;SDS011;10963;50.934;4.668;2022-12-10T14:23:25;58.73;;;19.57;;
21601;SDS011;10963;50.934;4.668;2022-12-10T14:26:08;59.53;;;18.67;;
21601;SDS011;10963;50.934;4.668;2022-12-10T14:28:46;51.00;;;20.20;;
21601;SDS011;10963;50.934;4.668;2022-12-10T14:31:21;52.50;;;19.87;;
21601;SDS011;10963;50.934;4.668;2022-12-10T14:33:57;48.33;;;18.47;;
21601;SDS011;10963;50.934;4.668;2022-12-10T14:37:01;56.77;;;20.13;;
21601;SDS011;10963;50.934;4.668;2022-12-10T14:39:27;52.83;;;20.90;;
21601;SDS011;10963;50.934;4.668;2022-12-10T14:41:56;55.33;;;20.43;;
21601;SDS011;10963;50.934;4.668;2022-12-10T14:44:24;51.40;;;19.60;;
21601;SDS011;10963;50.934;4.668;2022-12-10T14:46:50;50.90;;;18.37;;
21601;SDS011;10963;50.934;4.668;2022-12-10T14:49:21;47.87;;;18.73;;
21601;SDS011;10963;50.934;4.668;2022-12-10T14:51:50;47.40;;;18.80;;
21601;SDS011;10963;50.934;4.668;2022-12-10T14:54:30;51.67;;;18.77;;
21601;SDS011;10963;50.934;4.668;2022-12-10T14:56:59;56.27;;;19.80;;
21601;SDS011;10963;50.934;4.668;2022-12-10T14:59:30;54.93;;;19.67;;
21601;SDS011;10963;50.934;4.668;2022-12-10T15:02:22;53.00;;;19.00;;
21601;SDS011;10963;50.934;4.668;2022-12-10T15:04:52;60.40;;;21.20;;
21601;SDS011;10963;50.934;4.668;2022-12-10T15:07:22;60.00;;;25.73;;
21601;SDS011;10963;50.934;4.668;2022-12-10T15:09:53;48.50;;;19.80;;
21601;SDS011;10963;50.934;4.668;2022-12-10T15:12:23;50.70;;;19.53;;
21601;SDS011;10963;50.934;4.668;2022-12-10T15:15:09;57.90;;;19.70;;
21601;SDS011;10963;50.934;4.668;2022-12-10T15:17:58;60.77;;;20.27;;
21601;SDS011;10963;50.934;4.668;2022-12-10T15:20:31;49.23;;;17.07;;
21601;SDS011;10963;50.934;4.668;2022-12-10T15:25:44;52.80;;;18.77;;
21601;SDS011;10963;50.934;4.668;2022-12-10T15:28:31;55.57;;;22.07;;
21601;SDS011;10963;50.934;4.668;2022-12-10T15:31:12;48.93;;;18.27;;
21601;SDS011;10963;50.934;4.668;2022-12-10T15:36:25;61.30;;;23.77;;
21601;SDS011;10963;50.934;4.668;2022-12-10T15:38:56;42.87;;;15.87;;
21601;SDS011;10963;50.934;4.668;2022-12-10T15:41:37;47.63;;;17.97;;
21601;SDS011;10963;50.934;4.668;2022-12-10T15:44:17;45.43;;;16.83;;
21601;SDS011;10963;50.934;4.668;2022-12-10T15:49:40;45.90;;;16.10;;
21601;SDS011;10963;50.934;4.668;2022-12-10T15:52:08;52.57;;;19.13;;
21601;SDS011;10963;50.934;4.668;2022-12-10T15:54:40;47.63;;;18.57;;
21601;SDS011;10963;50.934;4.668;2022-12-10T15:57:12;53.73;;;18.60;;
21601;SDS011;10963;50.934;4.668;2022-12-10T15:59:43;49.80;;;18.40;;
21601;SDS011;10963;50.934;4.668;2022-12-10T16:04:56;50.53;;;19.60;;
21601;SDS011;10963;50.934;4.668;2022-12-10T16:07:22;59.13;;;18.87;;
21601;SDS011;10963;50.934;4.668;2022-12-10T16:09:48;50.80;;;21.53;;
21601;SDS011;10963;50.934;4.668;2022-12-10T16:12:14;52.30;;;17.97;;
21601;SDS011;10963;50.934;4.668;2022-12-10T16:14:42;46.57;;;18.13;;
21601;SDS011;10963;50.934;4.668;2022-12-10T16:17:14;46.03;;;18.27;;
21601;SDS011;10963;50.934;4.668;2022-12-10T16:19:40;46.17;;;18.13;;
21601;SDS011;10963;50.934;4.668;2022-12-10T16:22:07;46.87;;;18.77;;
21601;SDS011;10963;50.934;4.668;2022-12-10T16:24:33;53.60;;;21.13;;
21601;SDS011;10963;50.934;4.668;2022-12-10T16:26:58;48.10;;;18.93;;
21601;SDS011;10963;50.934;4.668;2022-12-10T16:29:24;47.13;;;19.40;;
21601;SDS011;10963;50.934;4.668;2022-12-10T16:31:50;49.03;;;19.43;;
21601;SDS011;10963;50.934;4.668;2022-12-10T16:34:15;52.30;;;19.30;;
21601;SDS011;10963;50.934;4.668;2022-12-10T16:36:41;48.00;;;17.63;;
21601;SDS011;10963;50.934;4.668;2022-12-10T16:39:07;45.10;;;16.90;;
21601;SDS011;10963;50.934;4.668;2022-12-10T16:41:34;54.57;;;19.70;;
21601;SDS011;10963;50.934;4.668;2022-12-10T16:44:00;46.10;;;19.00;;
21601;SDS011;10963;50.934;4.668;2022-12-10T16:46:25;52.23;;;17.77;;
21601;SDS011;10963;50.934;4.668;2022-12-10T16:48:51;51.30;;;18.70;;
21601;SDS011;10963;50.934;4.668;2022-12-10T16:51:24;49.13;;;18.20;;
21601;SDS011;10963;50.934;4.668;2022-12-10T16:53:56;47.63;;;19.07;;
21601;SDS011;10963;50.934;4.668;2022-12-10T16:56:22;51.73;;;22.60;;